createdAt,value
2022-12-18T00:01:34.978Z,36.80
2022-12-18T00:04:15.807Z,36.00
2022-12-18T00:06:42.763Z,35.50
2022-12-18T00:09:11.322Z,36.30
2022-12-18T00:11:38.047Z,38.80
2022-12-18T00:14:05.036Z,37.80
2022-12-18T00:16:33.431Z,43.70
2022-12-18T00:19:00.872Z,37.50
2022-12-18T00:21:29.335Z,34.80
2022-12-18T00:23:56.985Z,33.00
2022-12-18T00:26:26.489Z,31.80
2022-12-18T00:28:56.148Z,32.00
2022-12-18T00:31:25.226Z,33.00
2022-12-18T00:33:57.476Z,27.90
2022-12-18T00:36:28.121Z,29.60
2022-12-18T00:38:56.406Z,29.60
2022-12-18T00:41:42.883Z,24.40
2022-12-18T00:44:12.940Z,30.20
2022-12-18T00:46:40.214Z,31.40
2022-12-18T00:49:07.773Z,27.70
2022-12-18T00:51:34.646Z,30.50
2022-12-18T00:54:01.582Z,32.10
2022-12-18T00:56:28.258Z,25.10
2022-12-18T00:58:55.111Z,27.80
2022-12-18T01:01:22.024Z,30.50
2022-12-18T01:03:48.904Z,28.40
2022-12-18T01:06:17.692Z,23.60
2022-12-18T01:08:45.071Z,29.60
2022-12-18T01:11:16.428Z,25.30
2022-12-18T01:13:43.348Z,27.10
2022-12-18T01:16:13.201Z,26.10
2022-12-18T01:18:40.353Z,27.70
2022-12-18T01:21:09.125Z,24.60
2022-12-18T01:23:38.626Z,25.50
2022-12-18T01:26:11.237Z,27.60
2022-12-18T01:28:41.138Z,24.50
2022-12-18T01:31:13.694Z,25.00
2022-12-18T01:33:41.590Z,24.90
2022-12-18T01:36:15.433Z,22.70
2022-12-18T01:38:42.380Z,23.40
2022-12-18T01:41:10.057Z,22.70
2022-12-18T01:43:53.144Z,20.40
2022-12-18T01:46:23.097Z,22.40
2022-12-18T01:48:58.806Z,18.20
2022-12-18T01:51:30.086Z,20.40
2022-12-18T01:53:58.093Z,19.10
2022-12-18T01:56:24.835Z,20.60
2022-12-18T01:59:00.434Z,15.00
2022-12-18T02:01:27.706Z,19.80
2022-12-18T02:03:54.471Z,17.20
2022-12-18T02:06:40.232Z,21.30
2022-12-18T02:09:34.297Z,16.80
2022-12-18T02:12:16.486Z,21.50
2022-12-18T02:14:54.357Z,22.90
2022-12-18T02:17:37.082Z,18.00
2022-12-18T02:20:19.660Z,21.10
2022-12-18T02:23:16.418Z,18.50
2022-12-18T02:25:58.682Z,18.30
2022-12-18T02:28:31.677Z,19.90
2022-12-18T02:31:02.139Z,20.90
2022-12-18T02:33:31.410Z,23.80
2022-12-18T02:36:00.622Z,23.70
2022-12-18T02:38:30.206Z,19.80
2022-12-18T02:40:58.097Z,22.70
2022-12-18T02:43:24.865Z,28.40
2022-12-18T02:45:58.582Z,23.20
2022-12-18T02:48:35.891Z,26.00
2022-12-18T02:51:24.443Z,24.50
2022-12-18T02:54:09.710Z,26.70
2022-12-18T02:56:54.568Z,24.90
2022-12-18T02:59:37.412Z,28.90
2022-12-18T03:02:22.640Z,30.30
2022-12-18T03:05:06.561Z,28.80
2022-12-18T03:07:45.293Z,31.80
2022-12-18T03:10:17.289Z,26.10
2022-12-18T03:12:52.785Z,32.80
2022-12-18T03:15:35.309Z,33.50
2022-12-18T03:18:25.468Z,37.00
2022-12-18T03:20:56.978Z,30.90
2022-12-18T03:23:28.244Z,33.90
2022-12-18T03:26:04.373Z,37.90
2022-12-18T03:28:42.617Z,31.90
2022-12-18T03:31:11.700Z,30.10
2022-12-18T03:33:47.532Z,37.90
2022-12-18T03:36:15.350Z,35.80
2022-12-18T03:38:42.561Z,36.00
2022-12-18T03:41:23.864Z,31.50
2022-12-18T03:44:16.344Z,30.50
2022-12-18T03:47:03.575Z,31.20
2022-12-18T03:50:08.367Z,30.10
2022-12-18T03:52:54.555Z,35.20
2022-12-18T03:55:26.181Z,45.00
2022-12-18T03:57:59.344Z,37.20
2022-12-18T04:00:28.408Z,35.00
2022-12-18T04:03:02.330Z,33.10
2022-12-18T04:05:37.392Z,29.90
2022-12-18T04:08:05.546Z,28.30
2022-12-18T04:10:36.288Z,30.20
2022-12-18T04:13:03.534Z,31.00
2022-12-18T04:15:35.116Z,30.70
2022-12-18T04:18:03.896Z,40.90
2022-12-18T04:20:36.781Z,37.60
2022-12-18T04:23:03.787Z,32.40
2022-12-18T04:25:30.649Z,37.10
2022-12-18T04:28:06.032Z,38.40
2022-12-18T04:30:33.435Z,36.40
2022-12-18T04:33:00.393Z,38.60
2022-12-18T04:35:27.624Z,33.40
2022-12-18T04:37:55.430Z,33.90
2022-12-18T04:40:22.504Z,35.90
2022-12-18T04:42:49.624Z,36.60
2022-12-18T04:45:16.747Z,38.40
2022-12-18T04:47:43.444Z,36.50
2022-12-18T04:50:10.231Z,37.00
2022-12-18T04:52:36.980Z,37.50
2022-12-18T04:55:04.162Z,38.80
2022-12-18T04:57:33.667Z,33.50
2022-12-18T05:00:00.326Z,34.50
2022-12-18T05:02:27.238Z,31.40
2022-12-18T05:04:54.090Z,39.00
2022-12-18T05:07:20.764Z,34.60
2022-12-18T05:09:47.626Z,34.60
2022-12-18T05:12:14.322Z,34.00
2022-12-18T05:14:41.129Z,31.40
2022-12-18T05:17:07.973Z,30.30
2022-12-18T05:19:34.776Z,33.80
2022-12-18T05:22:02.194Z,36.80
2022-12-18T05:24:28.886Z,35.30
2022-12-18T05:26:55.591Z,32.20
2022-12-18T05:29:22.403Z,34.40
2022-12-18T05:31:49.228Z,40.50
2022-12-18T05:34:16.257Z,34.80
2022-12-18T05:36:43.164Z,48.10
2022-12-18T05:39:11.364Z,45.20
2022-12-18T05:41:38.282Z,48.00
2022-12-18T05:44:05.430Z,48.40
2022-12-18T05:46:32.723Z,40.80
2022-12-18T05:49:01.504Z,41.50
2022-12-18T05:51:28.453Z,40.00
2022-12-18T05:53:55.608Z,37.90
2022-12-18T05:56:23.627Z,44.50
2022-12-18T05:58:54.604Z,41.50
2022-12-18T06:01:24.421Z,58.60
2022-12-18T06:03:51.376Z,45.60
2022-12-18T06:06:21.201Z,43.20
2022-12-18T06:08:48.638Z,49.10
2022-12-18T06:11:22.410Z,62.20
2022-12-18T06:13:58.296Z,39.50
2022-12-18T06:16:27.951Z,53.30
2022-12-18T06:19:03.190Z,46.40
2022-12-18T06:21:30.925Z,48.10
2022-12-18T06:24:00.108Z,42.90
2022-12-18T06:26:28.467Z,33.70
2022-12-18T06:28:56.446Z,37.00
2022-12-18T06:31:23.528Z,39.80
2022-12-18T06:33:50.661Z,36.70
2022-12-18T06:36:17.735Z,40.70
2022-12-18T06:38:45.245Z,38.00
2022-12-18T06:41:17.917Z,45.60
2022-12-18T06:43:45.357Z,40.90
2022-12-18T06:46:12.540Z,37.40
2022-12-18T06:48:39.395Z,41.60
2022-12-18T06:51:06.206Z,39.90
2022-12-18T06:53:33.484Z,42.90
2022-12-18T06:56:09.917Z,44.10
2022-12-18T06:58:38.467Z,46.00
2022-12-18T07:01:07.775Z,41.50
2022-12-18T07:03:34.827Z,38.90
2022-12-18T07:06:01.665Z,40.60
2022-12-18T07:08:30.349Z,33.90
2022-12-18T07:10:57.621Z,27.40
2022-12-18T07:13:24.451Z,27.60
2022-12-18T07:15:51.149Z,29.90
2022-12-18T07:18:17.876Z,28.00
2022-12-18T07:20:45.261Z,26.70
2022-12-18T07:23:12.961Z,22.00
2022-12-18T07:25:40.128Z,22.90
2022-12-18T07:28:07.037Z,23.40
2022-12-18T07:30:33.887Z,23.20
2022-12-18T07:33:00.636Z,25.10
2022-12-18T07:35:27.582Z,22.00
2022-12-18T07:37:54.406Z,21.60
2022-12-18T07:40:21.316Z,24.20
2022-12-18T07:42:48.112Z,28.50
2022-12-18T07:45:14.902Z,22.30
2022-12-18T07:47:41.877Z,27.20
2022-12-18T07:50:09.228Z,25.20
2022-12-18T07:52:35.953Z,25.20
2022-12-18T07:55:03.092Z,24.40
2022-12-18T08:00:16.900Z,25.70
2022-12-18T08:02:43.741Z,22.90
2022-12-18T08:05:10.759Z,22.30
2022-12-18T08:07:38.043Z,19.00
2022-12-18T08:10:05.748Z,22.00
2022-12-18T08:12:33.023Z,22.80
2022-12-18T08:14:59.819Z,24.70
2022-12-18T08:17:26.484Z,24.30
2022-12-18T08:19:53.380Z,22.30
2022-12-18T08:22:20.308Z,20.90
2022-12-18T08:24:47.134Z,20.90
2022-12-18T08:27:28.858Z,21.80
2022-12-18T08:29:57.571Z,20.10
2022-12-18T08:32:25.779Z,20.70
2022-12-18T08:34:52.768Z,18.20
2022-12-18T08:37:19.636Z,24.60
2022-12-18T08:39:46.295Z,20.80
2022-12-18T08:42:31.773Z,24.10
2022-12-18T08:45:02.699Z,24.20
2022-12-18T08:47:29.518Z,23.50
2022-12-18T08:49:56.369Z,19.20
2022-12-18T08:52:23.032Z,24.00
2022-12-18T08:54:50.297Z,22.00
2022-12-18T08:57:17.120Z,23.40
2022-12-18T08:59:43.924Z,21.00
2022-12-18T09:02:12.163Z,23.80
2022-12-18T09:04:40.338Z,23.40
2022-12-18T09:07:07.376Z,21.40
2022-12-18T09:09:34.239Z,27.90
2022-12-18T09:12:01.031Z,20.20
2022-12-18T09:14:27.889Z,20.80
2022-12-18T09:16:54.528Z,19.00
2022-12-18T09:19:21.278Z,19.30
2022-12-18T09:21:48.583Z,16.60
2022-12-18T09:24:16.412Z,17.90
2022-12-18T09:26:46.872Z,18.40
2022-12-18T09:29:18.856Z,20.70
2022-12-18T09:31:47.314Z,18.70
2022-12-18T09:34:14.119Z,19.90
2022-12-18T09:36:40.841Z,19.90
2022-12-18T09:39:08.754Z,22.40
2022-12-18T09:41:47.637Z,21.20
2022-12-18T09:44:20.443Z,17.90
2022-12-18T09:47:19.405Z,25.40
2022-12-18T09:49:49.987Z,20.80
2022-12-18T09:52:26.855Z,23.80
2022-12-18T09:55:12.218Z,19.10
2022-12-18T09:57:48.132Z,21.00
2022-12-18T10:00:25.454Z,20.20
2022-12-18T10:02:56.955Z,20.50
2022-12-18T10:05:55.039Z,18.30
2022-12-18T10:08:54.161Z,19.90
2022-12-18T10:11:33.850Z,18.70
2022-12-18T10:14:38.809Z,20.00
2022-12-18T10:17:34.415Z,19.70
2022-12-18T10:20:16.589Z,19.70
2022-12-18T10:23:10.970Z,15.30
2022-12-18T10:26:08.434Z,15.00
2022-12-18T10:28:41.115Z,20.00
2022-12-18T10:31:17.441Z,20.70
2022-12-18T10:33:44.660Z,20.20
2022-12-18T10:36:11.989Z,15.00
2022-12-18T10:38:39.757Z,20.20
2022-12-18T10:41:12.065Z,19.40
2022-12-18T10:43:40.244Z,17.10
2022-12-18T10:46:09.761Z,17.40
2022-12-18T10:48:39.944Z,15.60
2022-12-18T10:51:12.088Z,15.20
2022-12-18T10:53:43.100Z,14.10
2022-12-18T10:56:10.173Z,16.00
2022-12-18T10:58:39.238Z,15.10
2022-12-18T11:01:18.118Z,13.70
2022-12-18T11:04:02.039Z,15.50
2022-12-18T11:06:32.969Z,14.20
2022-12-18T11:09:12.640Z,18.10
2022-12-18T11:11:41.396Z,17.70
2022-12-18T11:14:22.320Z,23.30
2022-12-18T11:19:41.646Z,15.10
2022-12-18T11:22:41.137Z,15.30
2022-12-18T11:25:34.488Z,17.30
2022-12-18T11:28:06.582Z,18.10
2022-12-18T11:30:37.471Z,12.30
2022-12-18T11:33:22.347Z,21.60
2022-12-18T11:36:05.166Z,15.30
2022-12-18T11:38:36.354Z,20.20
2022-12-18T11:41:03.012Z,20.40
2022-12-18T11:43:45.734Z,16.20
2022-12-18T11:46:19.995Z,16.80
2022-12-18T11:48:58.234Z,18.60
2022-12-18T11:51:42.259Z,24.90
2022-12-18T11:54:14.977Z,25.40
2022-12-18T11:56:46.469Z,17.70
2022-12-18T11:59:56.455Z,15.90
2022-12-18T12:02:49.853Z,16.50
2022-12-18T12:05:31.953Z,15.30
2022-12-18T12:08:12.184Z,16.70
2022-12-18T12:10:47.801Z,17.60
2022-12-18T12:13:39.093Z,18.10
2022-12-18T12:16:12.984Z,18.20
2022-12-18T12:19:14.313Z,16.40
2022-12-18T12:21:54.233Z,15.40
2022-12-18T12:24:39.921Z,17.40
2022-12-18T12:27:24.734Z,15.60
2022-12-18T12:30:08.806Z,15.70
2022-12-18T12:33:03.142Z,16.90
2022-12-18T12:35:35.725Z,18.50
2022-12-18T12:38:11.576Z,21.10
2022-12-18T12:40:53.943Z,14.40
2022-12-18T12:43:29.831Z,16.60
2022-12-18T12:46:14.574Z,16.80
2022-12-18T12:48:51.784Z,17.70
2022-12-18T12:51:40.626Z,16.50
2022-12-18T12:54:18.121Z,13.30
2022-12-18T12:57:14.911Z,16.20
2022-12-18T13:00:06.731Z,17.50
2022-12-18T13:02:40.373Z,19.40
2022-12-18T13:05:35.023Z,17.90
2022-12-18T13:10:38.927Z,14.40
2022-12-18T13:13:21.167Z,17.50
2022-12-18T13:16:07.000Z,19.10
2022-12-18T13:18:35.093Z,17.60
2022-12-18T13:21:08.490Z,18.10
2022-12-18T13:23:39.928Z,17.90
2022-12-18T13:26:10.265Z,18.80
2022-12-18T13:28:46.682Z,23.80
2022-12-18T13:31:15.454Z,20.70
2022-12-18T13:34:16.647Z,21.20
2022-12-18T13:36:34.215Z,21.60
2022-12-18T13:39:12.276Z,27.50
2022-12-18T13:41:39.790Z,18.00
2022-12-18T13:44:20.654Z,20.90
2022-12-18T13:46:51.542Z,25.10
2022-12-18T13:49:30.879Z,22.30
2022-12-18T13:51:57.857Z,19.40
2022-12-18T13:54:36.220Z,20.90
2022-12-18T13:57:05.211Z,24.10
2022-12-18T13:59:37.503Z,18.90
2022-12-18T14:02:25.548Z,22.90
2022-12-18T14:04:54.089Z,25.60
2022-12-18T14:07:33.086Z,24.50
2022-12-18T14:10:41.793Z,26.20
2022-12-18T14:13:07.302Z,30.30
2022-12-18T14:15:35.992Z,32.10
2022-12-18T14:18:26.149Z,33.90
2022-12-18T14:20:57.231Z,32.40
2022-12-18T14:23:30.636Z,33.50
2022-12-18T14:26:02.101Z,33.50
2022-12-18T14:28:32.684Z,61.10
2022-12-18T14:30:59.586Z,45.90
2022-12-18T14:33:28.308Z,57.00
2022-12-18T14:36:06.108Z,50.20
2022-12-18T14:38:32.769Z,49.40
2022-12-18T14:41:14.185Z,54.70
2022-12-18T14:43:43.646Z,55.10
2022-12-18T14:46:37.333Z,48.10
2022-12-18T14:49:33.636Z,48.10
2022-12-18T14:52:06.174Z,48.30
2022-12-18T14:54:37.439Z,46.60
2022-12-18T14:57:05.690Z,47.90
2022-12-18T14:59:33.275Z,57.30
2022-12-18T15:02:24.175Z,65.60
2022-12-18T15:05:05.166Z,61.40
2022-12-18T15:07:49.118Z,74.10
2022-12-18T15:10:20.587Z,76.20
2022-12-18T15:13:06.765Z,77.40
2022-12-18T15:15:34.037Z,94.60
2022-12-18T15:18:03.912Z,82.00
2022-12-18T15:20:33.551Z,76.60
2022-12-18T15:23:00.425Z,66.70
2022-12-18T15:25:37.629Z,57.70
2022-12-18T15:28:16.374Z,58.10
2022-12-18T15:30:59.051Z,50.00
2022-12-18T15:33:30.152Z,45.90
2022-12-18T15:36:02.144Z,46.70
2022-12-18T15:38:28.968Z,55.30
2022-12-18T15:40:55.860Z,54.60
2022-12-18T15:43:37.045Z,46.10
2022-12-18T15:46:11.461Z,42.70
2022-12-18T15:48:41.898Z,44.00
2022-12-18T15:51:21.932Z,40.80
2022-12-18T15:53:52.868Z,44.40
2022-12-18T15:56:39.025Z,49.30
2022-12-18T15:59:12.433Z,56.00
2022-12-18T16:01:42.693Z,49.10
2022-12-18T16:04:13.431Z,49.70
2022-12-18T16:07:05.668Z,52.80
2022-12-18T16:09:27.398Z,55.20
2022-12-18T16:11:54.472Z,74.50
2022-12-18T16:14:24.224Z,99.20
2022-12-18T16:17:03.008Z,115.30
2022-12-18T16:19:30.573Z,119.80
2022-12-18T16:21:59.090Z,99.80
2022-12-18T16:24:29.305Z,85.60
2022-12-18T16:26:59.571Z,104.10
2022-12-18T16:29:27.939Z,106.00
2022-12-18T16:31:56.120Z,85.00
2022-12-18T16:34:28.851Z,77.80
2022-12-18T16:37:05.158Z,96.20
2022-12-18T16:39:37.487Z,88.40
2022-12-18T16:42:16.673Z,87.40
2022-12-18T16:44:44.213Z,83.70
2022-12-18T16:47:11.376Z,96.80
2022-12-18T16:49:44.770Z,102.00
2022-12-18T16:52:13.720Z,106.00
2022-12-18T16:54:40.669Z,104.40
2022-12-18T16:57:12.483Z,90.90
2022-12-18T16:59:39.313Z,110.10
2022-12-18T17:02:14.893Z,89.80
2022-12-18T17:04:42.919Z,60.70
2022-12-18T17:07:10.563Z,70.40
2022-12-18T17:09:38.534Z,60.40
2022-12-18T17:12:05.994Z,59.90
2022-12-18T17:14:33.294Z,65.30
2022-12-18T17:17:20.495Z,84.80
2022-12-18T17:19:47.351Z,68.80
2022-12-18T17:22:14.057Z,62.60
2022-12-18T17:24:40.757Z,60.20
2022-12-18T17:27:08.312Z,49.70
2022-12-18T17:29:35.558Z,43.70
2022-12-18T17:32:02.510Z,51.30
2022-12-18T17:34:30.115Z,54.40
2022-12-18T17:36:57.785Z,59.80
2022-12-18T17:39:25.240Z,58.10
2022-12-18T17:41:52.149Z,51.90
2022-12-18T17:44:18.867Z,48.10
2022-12-18T17:46:46.336Z,47.90
2022-12-18T17:49:13.416Z,43.90
2022-12-18T17:51:42.322Z,54.00
2022-12-18T17:54:09.596Z,62.30
2022-12-18T17:56:36.503Z,57.10
2022-12-18T17:59:03.294Z,62.10
2022-12-18T18:01:30.116Z,62.90
2022-12-18T18:03:57.117Z,59.40
2022-12-18T18:06:24.252Z,48.50
2022-12-18T18:08:51.566Z,69.50
2022-12-18T18:11:40.016Z,44.00
2022-12-18T18:14:13.199Z,42.10
2022-12-18T18:16:42.916Z,42.40
2022-12-18T18:19:14.123Z,47.30
2022-12-18T18:21:43.304Z,49.10
2022-12-18T18:24:13.473Z,42.60
2022-12-18T18:26:41.179Z,34.50
2022-12-18T18:29:08.566Z,37.40
2022-12-18T18:31:40.847Z,29.00
2022-12-18T18:34:14.790Z,34.50
2022-12-18T18:36:41.751Z,30.00
2022-12-18T18:39:09.055Z,27.40
2022-12-18T18:41:37.513Z,29.50
2022-12-18T18:44:04.345Z,23.80
2022-12-18T18:46:31.064Z,33.30
2022-12-18T18:48:57.853Z,33.20
2022-12-18T18:51:25.671Z,30.20
2022-12-18T18:53:54.629Z,26.40
2022-12-18T18:59:09.763Z,31.70
2022-12-18T19:01:36.579Z,33.10
2022-12-18T19:04:05.034Z,34.90
2022-12-18T19:06:32.383Z,31.80
2022-12-18T19:09:01.932Z,23.60
2022-12-18T19:11:47.384Z,28.30
2022-12-18T19:14:15.150Z,25.80
2022-12-18T19:16:44.331Z,23.10
2022-12-18T19:19:12.377Z,26.10
2022-12-18T19:21:39.525Z,24.80
2022-12-18T19:24:06.668Z,27.50
2022-12-18T19:26:33.791Z,39.80
2022-12-18T19:29:05.153Z,44.60
2022-12-18T19:31:35.517Z,45.80
2022-12-18T19:34:06.084Z,40.30
2022-12-18T19:36:35.139Z,52.60
2022-12-18T19:39:10.984Z,49.70
2022-12-18T19:41:39.346Z,36.00
2022-12-18T19:44:08.091Z,43.50
2022-12-18T19:46:35.901Z,34.00
2022-12-18T19:49:02.911Z,26.40
2022-12-18T19:51:31.732Z,22.80
2022-12-18T19:54:01.732Z,23.90
2022-12-18T19:56:31.334Z,23.00
2022-12-18T19:58:58.607Z,20.40
2022-12-18T20:01:27.227Z,29.70
2022-12-18T20:03:55.199Z,54.40
2022-12-18T20:06:46.036Z,56.00
2022-12-18T20:09:12.783Z,66.80
2022-12-18T20:11:42.046Z,62.40
2022-12-18T20:14:11.321Z,78.40
2022-12-18T20:16:38.147Z,84.30
2022-12-18T20:19:05.620Z,56.70
2022-12-18T20:21:32.743Z,44.30
2022-12-18T20:24:00.683Z,109.30
2022-12-18T20:26:27.565Z,75.40
2022-12-18T20:28:54.837Z,68.60
2022-12-18T20:31:22.345Z,62.40
2022-12-18T20:33:49.920Z,57.30
2022-12-18T20:36:22.542Z,52.50
2022-12-18T20:38:57.174Z,38.50
2022-12-18T20:41:26.154Z,41.90
2022-12-18T20:43:55.075Z,23.70
2022-12-18T20:46:21.966Z,52.00
2022-12-18T20:48:48.732Z,51.90
2022-12-18T20:51:19.408Z,56.70
2022-12-18T20:53:47.390Z,25.50
2022-12-18T20:56:21.150Z,36.50
2022-12-18T20:58:50.005Z,40.40
2022-12-18T21:01:20.135Z,44.70
2022-12-18T21:03:47.756Z,48.40
2022-12-18T21:06:17.893Z,40.50
2022-12-18T21:08:44.790Z,44.00
2022-12-18T21:11:32.213Z,53.70
2022-12-18T21:13:59.907Z,51.20
2022-12-18T21:16:26.701Z,51.40
2022-12-18T21:18:54.466Z,42.40
2022-12-18T21:21:26.367Z,56.40
2022-12-18T21:23:53.948Z,56.10
2022-12-18T21:26:25.879Z,51.60
2022-12-18T21:28:55.169Z,24.50
2022-12-18T21:31:24.408Z,76.90
2022-12-18T21:33:51.914Z,32.40
2022-12-18T21:36:19.968Z,33.70
2022-12-18T21:38:46.676Z,21.40
2022-12-18T21:41:37.521Z,35.70
2022-12-18T21:44:11.375Z,66.50
2022-12-18T21:46:40.384Z,53.50
2022-12-18T21:49:08.240Z,37.40
2022-12-18T21:51:36.189Z,36.60
2022-12-18T21:54:03.815Z,36.40
2022-12-18T21:56:47.717Z,35.10
2022-12-18T21:59:19.329Z,36.80
2022-12-18T22:01:47.346Z,33.00
2022-12-18T22:04:15.475Z,31.70
2022-12-18T22:06:42.588Z,35.10
2022-12-18T22:09:11.748Z,34.00
2022-12-18T22:11:38.545Z,29.80
2022-12-18T22:14:05.901Z,69.90
2022-12-18T22:16:32.693Z,66.40
2022-12-18T22:18:59.353Z,40.40
2022-12-18T22:21:31.331Z,35.90
2022-12-18T22:24:00.578Z,38.30
2022-12-18T22:26:33.879Z,46.00
2022-12-18T22:29:23.683Z,37.00
2022-12-18T22:31:50.511Z,47.50
2022-12-18T22:34:20.650Z,33.20
2022-12-18T22:36:50.253Z,40.50
2022-12-18T22:39:23.048Z,39.50
2022-12-18T22:41:50.067Z,127.20
2022-12-18T22:44:18.122Z,87.80
2022-12-18T22:46:47.782Z,36.90
2022-12-18T22:49:23.158Z,29.30
2022-12-18T22:51:51.096Z,38.00
2022-12-18T22:54:18.152Z,65.80
2022-12-18T22:56:45.232Z,78.80
2022-12-18T22:59:19.367Z,58.70
2022-12-18T23:01:47.968Z,33.20
2022-12-18T23:04:16.871Z,40.50
2022-12-18T23:06:44.884Z,39.20
2022-12-18T23:09:17.866Z,36.60
2022-12-18T23:11:46.140Z,23.20
2022-12-18T23:14:13.026Z,49.00
2022-12-18T23:16:39.861Z,59.00
2022-12-18T23:19:07.496Z,180.10
2022-12-18T23:21:34.652Z,50.40
2022-12-18T23:24:02.683Z,27.00
2022-12-18T23:26:29.441Z,32.10
2022-12-18T23:28:56.373Z,54.80
2022-12-18T23:31:26.472Z,55.90
2022-12-18T23:33:55.628Z,55.30
2022-12-18T23:36:23.172Z,47.20
2022-12-18T23:38:55.149Z,28.60
2022-12-18T23:41:24.386Z,24.20
2022-12-18T23:43:51.553Z,27.20
2022-12-18T23:46:21.467Z,26.60
2022-12-18T23:48:48.993Z,21.70
2022-12-18T23:51:17.059Z,26.00
2022-12-18T23:53:44.711Z,26.80
2022-12-18T23:56:14.035Z,49.70
2022-12-18T23:58:42.477Z,53.10
